sensor_id;sensor_type;location;lat;lon;timestamp;noise_LAeq;noise_LA_min;noise_LA_max;noise_LA01;noise_LA95
43787;Laerm;29409;49.306;8.500;2024-01-30T00:01:00;39.70;37.12;42.35;;
43787;Laerm;29409;49.306;8.500;2024-01-30T00:02:00;39.65;36.20;42.35;;
43787;Laerm;29409;49.306;8.500;2024-01-30T00:03:00;39.68;36.20;42.47;;
43787;Laerm;29409;49.306;8.500;2024-01-30T00:04:00;39.40;36.20;41.89;;
43787;Laerm;29409;49.306;8.500;2024-01-30T00:05:01;39.91;35.94;43.37;;
43787;Laerm;29409;49.306;8.500;2024-01-30T00:06:02;39.58;36.69;41.82;;
43787;Laerm;29409;49.306;8.500;2024-01-30T00:07:03;40.40;37.12;42.65;;
43787;Laerm;29409;49.306;8.500;2024-01-30T00:08:04;40.50;37.52;42.53;;
43787;Laerm;29409;49.306;8.500;2024-01-30T00:09:04;40.45;37.32;42.53;;
43787;Laerm;29409;49.306;8.500;2024-01-30T00:10:05;40.37;37.32;43.90;;
43787;Laerm;29409;49.306;8.500;2024-01-30T00:11:07;39.95;36.91;42.47;;
43787;Laerm;29409;49.306;8.500;2024-01-30T00:12:07;40.29;37.12;43.34;;
43787;Laerm;29409;49.306;8.500;2024-01-30T00:13:07;40.06;37.52;44.07;;
43787;Laerm;29409;49.306;8.500;2024-01-30T00:14:07;39.94;36.69;42.06;;
43787;Laerm;29409;49.306;8.500;2024-01-30T00:15:08;39.85;37.52;42.09;;
43787;Laerm;29409;49.306;8.500;2024-01-30T00:16:19;39.82;37.12;42.35;;
43787;Laerm;29409;49.306;8.500;2024-01-30T00:17:20;40.62;37.17;44.47;;
43787;Laerm;29409;49.306;8.500;2024-01-30T00:18:20;42.14;36.91;55.36;;
43787;Laerm;29409;49.306;8.500;2024-01-30T00:19:21;39.52;36.45;41.96;;
43787;Laerm;29409;49.306;8.500;2024-01-30T00:20:22;39.30;35.94;41.14;;
43787;Laerm;29409;49.306;8.500;2024-01-30T00:21:22;39.85;36.91;42.35;;
43787;Laerm;29409;49.306;8.500;2024-01-30T00:22:23;39.92;36.69;42.09;;
43787;Laerm;29409;49.306;8.500;2024-01-30T00:23:23;39.80;36.20;42.41;;
43787;Laerm;29409;49.306;8.500;2024-01-30T00:24:24;39.52;36.69;43.94;;
43787;Laerm;29409;49.306;8.500;2024-01-30T00:25:24;39.86;36.91;42.16;;
43787;Laerm;29409;49.306;8.500;2024-01-30T00:26:24;40.10;36.20;42.53;;
43787;Laerm;29409;49.306;8.500;2024-01-30T00:27:25;39.81;37.12;42.41;;
43787;Laerm;29409;49.306;8.500;2024-01-30T00:28:25;40.19;37.12;42.35;;
43787;Laerm;29409;49.306;8.500;2024-01-30T00:29:26;40.42;37.32;43.39;;
43787;Laerm;29409;49.306;8.500;2024-01-30T00:30:30;41.16;38.05;45.45;;
43787;Laerm;29409;49.306;8.500;2024-01-30T00:31:30;40.31;37.12;42.76;;
43787;Laerm;29409;49.306;8.500;2024-01-30T00:32:30;40.38;37.52;42.35;;
43787;Laerm;29409;49.306;8.500;2024-01-30T00:33:31;40.02;36.69;42.71;;
43787;Laerm;29409;49.306;8.500;2024-01-30T00:34:31;40.50;37.88;42.82;;
43787;Laerm;29409;49.306;8.500;2024-01-30T00:35:31;40.30;37.87;44.62;;
43787;Laerm;29409;49.306;8.500;2024-01-30T00:36:31;40.02;36.91;42.09;;
43787;Laerm;29409;49.306;8.500;2024-01-30T00:37:32;40.45;37.32;42.35;;
43787;Laerm;29409;49.306;8.500;2024-01-30T00:38:32;40.43;36.91;42.98;;
43787;Laerm;29409;49.306;8.500;2024-01-30T00:39:33;40.15;36.91;43.54;;
43787;Laerm;29409;49.306;8.500;2024-01-30T00:40:33;40.08;35.94;45.66;;
43787;Laerm;29409;49.306;8.500;2024-01-30T00:41:33;39.65;36.20;42.22;;
43787;Laerm;29409;49.306;8.500;2024-01-30T00:42:33;39.50;36.20;41.46;;
43787;Laerm;29409;49.306;8.500;2024-01-30T00:43:34;39.61;36.69;41.89;;
43787;Laerm;29409;49.306;8.500;2024-01-30T00:44:35;39.51;36.20;41.46;;
43787;Laerm;29409;49.306;8.500;2024-01-30T00:45:37;39.67;35.94;43.77;;
43787;Laerm;29409;49.306;8.500;2024-01-30T00:46:37;39.77;36.45;43.77;;
43787;Laerm;29409;49.306;8.500;2024-01-30T00:47:37;39.85;36.91;42.71;;
43787;Laerm;29409;49.306;8.500;2024-01-30T00:48:38;40.28;36.69;43.24;;
43787;Laerm;29409;49.306;8.500;2024-01-30T00:49:38;39.78;36.91;42.90;;
43787;Laerm;29409;49.306;8.500;2024-01-30T00:50:38;40.11;36.91;43.14;;
43787;Laerm;29409;49.306;8.500;2024-01-30T00:51:39;40.13;36.91;42.29;;
43787;Laerm;29409;49.306;8.500;2024-01-30T00:52:40;39.91;37.32;42.35;;
43787;Laerm;29409;49.306;8.500;2024-01-30T00:53:41;39.85;36.91;42.41;;
43787;Laerm;29409;49.306;8.500;2024-01-30T00:54:42;39.92;36.69;41.96;;
43787;Laerm;29409;49.306;8.500;2024-01-30T00:55:43;40.42;37.88;42.35;;
43787;Laerm;29409;49.306;8.500;2024-01-30T00:56:43;40.86;38.21;43.29;;
43787;Laerm;29409;49.306;8.500;2024-01-30T00:57:43;40.40;36.91;42.59;;
43787;Laerm;29409;49.306;8.500;2024-01-30T00:58:44;40.49;36.45;44.76;;
43787;Laerm;29409;49.306;8.500;2024-01-30T00:59:44;40.49;37.12;43.04;;
43787;Laerm;29409;49.306;8.500;2024-01-30T01:00:44;40.50;37.70;43.09;;
43787;Laerm;29409;49.306;8.500;2024-01-30T01:01:45;40.23;37.32;43.14;;
43787;Laerm;29409;49.306;8.500;2024-01-30T01:02:45;40.62;38.05;42.88;;
43787;Laerm;29409;49.306;8.500;2024-01-30T01:03:46;40.32;36.91;43.04;;
43787;Laerm;29409;49.306;8.500;2024-01-30T01:04:46;40.74;37.52;42.88;;
43787;Laerm;29409;49.306;8.500;2024-01-30T01:05:47;41.46;37.70;47.90;;
43787;Laerm;29409;49.306;8.500;2024-01-30T01:06:47;40.53;37.52;43.94;;
43787;Laerm;29409;49.306;8.500;2024-01-30T01:07:47;40.92;37.35;47.62;;
43787;Laerm;29409;49.306;8.500;2024-01-30T01:08:48;40.42;37.52;42.71;;
43787;Laerm;29409;49.306;8.500;2024-01-30T01:09:48;40.37;37.52;42.59;;
43787;Laerm;29409;49.306;8.500;2024-01-30T01:10:49;40.61;36.91;42.65;;
43787;Laerm;29409;49.306;8.500;2024-01-30T01:11:49;41.05;37.88;46.13;;
43787;Laerm;29409;49.306;8.500;2024-01-30T01:12:49;40.58;37.32;43.04;;
43787;Laerm;29409;49.306;8.500;2024-01-30T01:13:52;40.92;37.88;47.52;;
43787;Laerm;29409;49.306;8.500;2024-01-30T01:14:52;40.96;37.88;43.24;;
43787;Laerm;29409;49.306;8.500;2024-01-30T01:15:52;41.87;38.81;46.20;;
43787;Laerm;29409;49.306;8.500;2024-01-30T01:16:53;41.43;38.37;46.25;;
43787;Laerm;29409;49.306;8.500;2024-01-30T01:17:53;41.04;38.21;43.39;;
43787;Laerm;29409;49.306;8.500;2024-01-30T01:18:55;41.43;38.37;46.38;;
43787;Laerm;29409;49.306;8.500;2024-01-30T01:19:56;41.36;37.88;44.43;;
43787;Laerm;29409;49.306;8.500;2024-01-30T01:20:56;41.36;38.21;44.47;;
43787;Laerm;29409;49.306;8.500;2024-01-30T01:21:56;41.41;38.67;43.29;;
43787;Laerm;29409;49.306;8.500;2024-01-30T01:23:00;40.80;38.21;43.86;;
43787;Laerm;29409;49.306;8.500;2024-01-30T01:24:00;40.67;37.32;42.71;;
43787;Laerm;29409;49.306;8.500;2024-01-30T01:25:00;40.93;37.88;43.19;;
43787;Laerm;29409;49.306;8.500;2024-01-30T01:26:01;41.49;37.70;45.07;;
43787;Laerm;29409;49.306;8.500;2024-01-30T01:27:03;40.74;38.21;43.68;;
43787;Laerm;29409;49.306;8.500;2024-01-30T01:28:03;41.04;37.87;44.80;;
43787;Laerm;29409;49.306;8.500;2024-01-30T01:29:04;41.01;37.32;45.36;;
43787;Laerm;29409;49.306;8.500;2024-01-30T01:30:10;40.78;38.05;43.34;;
43787;Laerm;29409;49.306;8.500;2024-01-30T01:31:11;40.78;37.88;43.39;;
43787;Laerm;29409;49.306;8.500;2024-01-30T01:32:12;40.62;37.88;43.39;;
43787;Laerm;29409;49.306;8.500;2024-01-30T01:33:13;40.45;37.88;42.71;;
43787;Laerm;29409;49.306;8.500;2024-01-30T01:34:14;40.69;37.12;43.68;;
43787;Laerm;29409;49.306;8.500;2024-01-30T01:35:14;41.15;37.52;43.24;;
43787;Laerm;29409;49.306;8.500;2024-01-30T01:36:15;40.72;37.70;42.88;;
43787;Laerm;29409;49.306;8.500;2024-01-30T01:37:15;40.34;36.91;43.68;;
43787;Laerm;29409;49.306;8.500;2024-01-30T01:38:15;40.54;37.12;44.01;;
43787;Laerm;29409;49.306;8.500;2024-01-30T01:39:16;41.27;37.70;45.86;;
43787;Laerm;29409;49.306;8.500;2024-01-30T01:40:16;40.49;37.70;44.11;;
43787;Laerm;29409;49.306;8.500;2024-01-30T01:41:16;40.66;36.45;44.23;;
43787;Laerm;29409;49.306;8.500;2024-01-30T01:42:16;40.57;37.52;43.86;;
43787;Laerm;29409;49.306;8.500;2024-01-30T01:43:17;40.48;37.12;42.41;;
43787;Laerm;29409;49.306;8.500;2024-01-30T01:44:17;41.02;38.21;43.99;;
43787;Laerm;29409;49.306;8.500;2024-01-30T01:45:18;40.66;37.52;42.88;;
43787;Laerm;29409;49.306;8.500;2024-01-30T01:46:19;40.60;37.32;42.82;;
43787;Laerm;29409;49.306;8.500;2024-01-30T01:47:19;40.22;37.32;42.47;;
43787;Laerm;29409;49.306;8.500;2024-01-30T01:48:20;40.37;37.32;45.57;;
43787;Laerm;29409;49.306;8.500;2024-01-30T01:49:27;40.29;37.52;42.59;;
43787;Laerm;29409;49.306;8.500;2024-01-30T01:50:29;40.11;36.69;42.30;;
43787;Laerm;29409;49.306;8.500;2024-01-30T01:51:29;41.24;37.32;46.57;;
43787;Laerm;29409;49.306;8.500;2024-01-30T01:52:30;40.73;38.02;42.59;;
43787;Laerm;29409;49.306;8.500;2024-01-30T01:53:31;40.95;37.52;42.82;;
43787;Laerm;29409;49.306;8.500;2024-01-30T01:54:31;41.71;38.52;46.30;;
43787;Laerm;29409;49.306;8.500;2024-01-30T01:55:32;41.47;37.35;43.94;;
43787;Laerm;29409;49.306;8.500;2024-01-30T01:56:33;41.17;38.47;43.19;;
43787;Laerm;29409;49.306;8.500;2024-01-30T01:57:33;41.20;38.05;52.32;;
43787;Laerm;29409;49.306;8.500;2024-01-30T01:58:34;40.68;36.69;48.16;;
43787;Laerm;29409;49.306;8.500;2024-01-30T01:59:35;40.46;36.91;49.93;;
43787;Laerm;29409;49.306;8.500;2024-01-30T02:00:35;40.47;37.32;42.47;;
43787;Laerm;29409;49.306;8.500;2024-01-30T02:01:36;40.67;37.52;42.82;;
43787;Laerm;29409;49.306;8.500;2024-01-30T02:02:37;40.97;38.05;43.14;;
43787;Laerm;29409;49.306;8.500;2024-01-30T02:03:39;41.80;37.70;47.63;;
43787;Laerm;29409;49.306;8.500;2024-01-30T02:04:39;40.79;37.70;43.44;;
43787;Laerm;29409;49.306;8.500;2024-01-30T02:05:40;40.56;37.70;42.53;;
43787;Laerm;29409;49.306;8.500;2024-01-30T02:06:41;40.64;37.12;42.71;;
43787;Laerm;29409;49.306;8.500;2024-01-30T02:07:43;41.32;37.70;45.27;;
43787;Laerm;29409;49.306;8.500;2024-01-30T02:08:43;40.84;37.52;45.42;;
43787;Laerm;29409;49.306;8.500;2024-01-30T02:09:44;40.33;37.52;42.35;;
43787;Laerm;29409;49.306;8.500;2024-01-30T02:10:44;40.33;37.70;42.22;;
43787;Laerm;29409;49.306;8.500;2024-01-30T02:11:44;40.43;37.12;42.88;;
43787;Laerm;29409;49.306;8.500;2024-01-30T02:12:45;40.79;37.88;51.16;;
43787;Laerm;29409;49.306;8.500;2024-01-30T02:13:45;40.76;37.52;44.31;;
43787;Laerm;29409;49.306;8.500;2024-01-30T02:14:45;41.05;37.88;46.05;;
43787;Laerm;29409;49.306;8.500;2024-01-30T02:15:49;41.56;38.95;45.01;;
43787;Laerm;29409;49.306;8.500;2024-01-30T02:16:50;41.16;38.21;44.03;;
43787;Laerm;29409;49.306;8.500;2024-01-30T02:17:51;41.16;38.52;43.63;;
43787;Laerm;29409;49.306;8.500;2024-01-30T02:18:51;41.14;37.70;43.24;;
43787;Laerm;29409;49.306;8.500;2024-01-30T02:19:52;40.86;38.05;44.76;;
43787;Laerm;29409;49.306;8.500;2024-01-30T02:20:53;40.57;37.52;42.59;;
43787;Laerm;29409;49.306;8.500;2024-01-30T02:21:54;40.94;38.21;42.82;;
43787;Laerm;29409;49.306;8.500;2024-01-30T02:22:54;40.92;38.05;43.81;;
43787;Laerm;29409;49.306;8.500;2024-01-30T02:23:56;40.52;37.52;42.59;;
43787;Laerm;29409;49.306;8.500;2024-01-30T02:24:57;40.09;36.91;41.96;;
43787;Laerm;29409;49.306;8.500;2024-01-30T02:25:58;40.19;37.12;42.35;;
43787;Laerm;29409;49.306;8.500;2024-01-30T02:26:58;40.37;37.53;42.41;;
43787;Laerm;29409;49.306;8.500;2024-01-30T02:27:58;40.49;36.45;42.59;;
43787;Laerm;29409;49.306;8.500;2024-01-30T02:28:58;40.56;37.88;42.88;;
43787;Laerm;29409;49.306;8.500;2024-01-30T02:29:59;40.52;36.91;42.65;;
43787;Laerm;29409;49.306;8.500;2024-01-30T02:30:59;41.76;38.05;50.53;;
43787;Laerm;29409;49.306;8.500;2024-01-30T02:31:59;40.74;37.32;42.59;;
43787;Laerm;29409;49.306;8.500;2024-01-30T02:32:59;40.84;37.17;45.33;;
43787;Laerm;29409;49.306;8.500;2024-01-30T02:34:00;40.88;37.32;43.19;;
43787;Laerm;29409;49.306;8.500;2024-01-30T02:35:00;41.96;38.05;50.82;;
43787;Laerm;29409;49.306;8.500;2024-01-30T02:36:00;42.20;38.81;65.72;;
43787;Laerm;29409;49.306;8.500;2024-01-30T02:37:00;40.92;38.05;43.39;;
43787;Laerm;29409;49.306;8.500;2024-01-30T02:38:01;41.17;38.37;43.49;;
43787;Laerm;29409;49.306;8.500;2024-01-30T02:39:01;41.12;38.21;44.39;;
43787;Laerm;29409;49.306;8.500;2024-01-30T02:40:01;41.22;38.37;43.28;;
43787;Laerm;29409;49.306;8.500;2024-01-30T02:41:02;41.14;38.32;42.98;;
43787;Laerm;29409;49.306;8.500;2024-01-30T02:42:03;40.70;37.70;42.53;;
43787;Laerm;29409;49.306;8.500;2024-01-30T02:43:03;41.00;38.05;43.29;;
43787;Laerm;29409;49.306;8.500;2024-01-30T02:44:04;40.94;37.88;45.42;;
43787;Laerm;29409;49.306;8.500;2024-01-30T02:45:04;41.13;38.67;43.42;;
43787;Laerm;29409;49.306;8.500;2024-01-30T02:46:04;40.91;38.21;42.82;;
43787;Laerm;29409;49.306;8.500;2024-01-30T02:47:05;41.09;37.88;49.57;;
43787;Laerm;29409;49.306;8.500;2024-01-30T02:48:06;41.28;39.08;43.63;;
43787;Laerm;29409;49.306;8.500;2024-01-30T02:49:06;41.38;38.81;44.73;;
43787;Laerm;29409;49.306;8.500;2024-01-30T02:50:06;41.04;37.70;43.44;;
43787;Laerm;29409;49.306;8.500;2024-01-30T02:51:07;40.87;38.52;43.24;;
43787;Laerm;29409;49.306;8.500;2024-01-30T02:52:07;40.96;38.95;44.62;;
43787;Laerm;29409;49.306;8.500;2024-01-30T02:53:07;41.20;38.81;44.94;;
43787;Laerm;29409;49.306;8.500;2024-01-30T02:54:07;40.89;37.52;43.63;;
43787;Laerm;29409;49.306;8.500;2024-01-30T02:55:08;40.54;37.70;42.53;;
43787;Laerm;29409;49.306;8.500;2024-01-30T02:56:08;40.50;37.70;42.59;;
43787;Laerm;29409;49.306;8.500;2024-01-30T02:57:10;40.83;37.70;43.68;;
43787;Laerm;29409;49.306;8.500;2024-01-30T02:58:10;40.63;38.52;42.41;;
43787;Laerm;29409;49.306;8.500;2024-01-30T02:59:10;42.15;38.21;48.26;;
43787;Laerm;29409;49.306;8.500;2024-01-30T03:00:10;41.15;38.37;44.03;;
43787;Laerm;29409;49.306;8.500;2024-01-30T03:01:11;40.99;38.52;43.77;;
43787;Laerm;29409;49.306;8.500;2024-01-30T03:02:11;41.77;38.37;44.72;;
43787;Laerm;29409;49.306;8.500;2024-01-30T03:03:11;42.98;39.92;45.14;;
43787;Laerm;29409;49.306;8.500;2024-01-30T03:04:12;41.53;38.81;43.44;;
43787;Laerm;29409;49.306;8.500;2024-01-30T03:05:12;41.14;38.21;44.27;;
43787;Laerm;29409;49.306;8.500;2024-01-30T03:06:12;41.06;37.52;42.82;;
43787;Laerm;29409;49.306;8.500;2024-01-30T03:07:15;41.04;38.21;43.04;;
43787;Laerm;29409;49.306;8.500;2024-01-30T03:08:15;40.79;37.88;42.98;;
43787;Laerm;29409;49.306;8.500;2024-01-30T03:09:18;40.75;36.91;42.65;;
43787;Laerm;29409;49.306;8.500;2024-01-30T03:10:18;40.95;37.70;42.93;;
43787;Laerm;29409;49.306;8.500;2024-01-30T03:11:18;41.60;38.37;44.23;;
43787;Laerm;29409;49.306;8.500;2024-01-30T03:12:19;41.05;37.52;44.65;;
43787;Laerm;29409;49.306;8.500;2024-01-30T03:13:19;40.72;37.70;43.04;;
43787;Laerm;29409;49.306;8.500;2024-01-30T03:14:19;41.80;38.74;47.72;;
43787;Laerm;29409;49.306;8.500;2024-01-30T03:15:20;40.51;37.70;42.76;;
43787;Laerm;29409;49.306;8.500;2024-01-30T03:16:20;40.74;37.70;42.98;;
43787;Laerm;29409;49.306;8.500;2024-01-30T03:17:20;40.54;37.70;42.47;;
43787;Laerm;29409;49.306;8.500;2024-01-30T03:18:21;40.70;38.21;42.71;;
43787;Laerm;29409;49.306;8.500;2024-01-30T03:19:21;40.67;38.21;42.59;;
43787;Laerm;29409;49.306;8.500;2024-01-30T03:20:21;40.97;38.52;44.19;;
43787;Laerm;29409;49.306;8.500;2024-01-30T03:21:21;41.54;38.37;45.04;;
43787;Laerm;29409;49.306;8.500;2024-01-30T03:22:22;41.15;38.67;44.03;;
43787;Laerm;29409;49.306;8.500;2024-01-30T03:23:22;41.90;39.34;45.73;;
43787;Laerm;29409;49.306;8.500;2024-01-30T03:24:22;41.40;38.95;44.11;;
43787;Laerm;29409;49.306;8.500;2024-01-30T03:25:22;41.07;38.52;43.54;;
43787;Laerm;29409;49.306;8.500;2024-01-30T03:26:23;41.28;38.37;44.15;;
43787;Laerm;29409;49.306;8.500;2024-01-30T03:27:23;40.94;38.21;42.88;;
43787;Laerm;29409;49.306;8.500;2024-01-30T03:28:23;41.21;38.21;42.93;;
43787;Laerm;29409;49.306;8.500;2024-01-30T03:29:23;41.11;38.21;43.39;;
43787;Laerm;29409;49.306;8.500;2024-01-30T03:30:24;41.56;38.81;46.40;;
43787;Laerm;29409;49.306;8.500;2024-01-30T03:31:24;41.36;38.21;47.48;;
43787;Laerm;29409;49.306;8.500;2024-01-30T03:32:24;40.93;37.88;42.82;;
43787;Laerm;29409;49.306;8.500;2024-01-30T03:33:25;41.63;38.05;49.15;;
43787;Laerm;29409;49.306;8.500;2024-01-30T03:34:25;41.25;37.52;43.99;;
43787;Laerm;29409;49.306;8.500;2024-01-30T03:35:25;41.19;38.52;43.49;;
43787;Laerm;29409;49.306;8.500;2024-01-30T03:36:27;41.16;37.32;45.17;;
43787;Laerm;29409;49.306;8.500;2024-01-30T03:37:28;41.60;38.95;44.39;;
43787;Laerm;29409;49.306;8.500;2024-01-30T03:38:28;41.29;38.67;43.24;;
43787;Laerm;29409;49.306;8.500;2024-01-30T03:39:28;41.74;38.95;44.31;;
43787;Laerm;29409;49.306;8.500;2024-01-30T03:40:29;41.08;38.21;44.19;;
43787;Laerm;29409;49.306;8.500;2024-01-30T03:41:29;41.31;38.95;43.04;;
43787;Laerm;29409;49.306;8.500;2024-01-30T03:42:29;41.36;38.37;43.04;;
43787;Laerm;29409;49.306;8.500;2024-01-30T03:43:30;41.85;38.81;46.40;;
43787;Laerm;29409;49.306;8.500;2024-01-30T03:44:30;41.47;38.05;43.77;;
43787;Laerm;29409;49.306;8.500;2024-01-30T03:45:30;41.39;39.21;44.27;;
43787;Laerm;29409;49.306;8.500;2024-01-30T03:46:31;41.59;39.21;44.07;;
43787;Laerm;29409;49.306;8.500;2024-01-30T03:47:31;41.68;38.95;47.26;;
43787;Laerm;29409;49.306;8.500;2024-01-30T03:48:31;41.52;39.08;45.80;;
43787;Laerm;29409;49.306;8.500;2024-01-30T03:49:31;41.65;38.95;44.19;;
43787;Laerm;29409;49.306;8.500;2024-01-30T03:50:32;41.68;39.21;46.38;;
43787;Laerm;29409;49.306;8.500;2024-01-30T03:51:32;41.81;39.08;44.07;;
43787;Laerm;29409;49.306;8.500;2024-01-30T03:52:32;42.09;39.58;45.01;;
43787;Laerm;29409;49.306;8.500;2024-01-30T03:53:32;41.12;38.67;43.44;;
43787;Laerm;29409;49.306;8.500;2024-01-30T03:54:33;41.25;38.05;43.77;;
43787;Laerm;29409;49.306;8.500;2024-01-30T03:55:33;41.89;38.81;47.10;;
43787;Laerm;29409;49.306;8.500;2024-01-30T03:56:34;42.50;39.34;49.41;;
43787;Laerm;29409;49.306;8.500;2024-01-30T03:57:34;41.83;38.95;47.67;;
43787;Laerm;29409;49.306;8.500;2024-01-30T03:58:34;41.27;38.52;45.27;;
43787;Laerm;29409;49.306;8.500;2024-01-30T03:59:35;41.61;39.21;44.54;;
43787;Laerm;29409;49.306;8.500;2024-01-30T04:00:35;41.58;38.67;44.07;;
43787;Laerm;29409;49.306;8.500;2024-01-30T04:01:35;41.34;38.21;45.14;;
43787;Laerm;29409;49.306;8.500;2024-01-30T04:02:36;41.69;38.81;45.83;;
43787;Laerm;29409;49.306;8.500;2024-01-30T04:03:36;41.33;38.52;44.19;;
43787;Laerm;29409;49.306;8.500;2024-01-30T04:04:36;42.08;39.46;46.30;;
43787;Laerm;29409;49.306;8.500;2024-01-30T04:05:37;43.09;39.92;48.37;;
43787;Laerm;29409;49.306;8.500;2024-01-30T04:06:37;41.34;38.37;49.16;;
43787;Laerm;29409;49.306;8.500;2024-01-30T04:07:37;41.86;39.46;45.36;;
43787;Laerm;29409;49.306;8.500;2024-01-30T04:08:38;42.09;39.70;46.38;;
43787;Laerm;29409;49.306;8.500;2024-01-30T04:09:38;42.05;39.46;46.25;;
43787;Laerm;29409;49.306;8.500;2024-01-30T04:10:40;41.91;39.46;45.11;;
43787;Laerm;29409;49.306;8.500;2024-01-30T04:11:41;42.07;39.34;46.73;;
43787;Laerm;29409;49.306;8.500;2024-01-30T04:12:42;41.70;38.21;45.27;;
43787;Laerm;29409;49.306;8.500;2024-01-30T04:13:42;41.67;38.67;44.35;;
43787;Laerm;29409;49.306;8.500;2024-01-30T04:14:43;41.92;39.58;44.47;;
43787;Laerm;29409;49.306;8.500;2024-01-30T04:15:43;41.38;38.81;44.03;;
43787;Laerm;29409;49.306;8.500;2024-01-30T04:16:44;41.34;38.95;43.19;;
43787;Laerm;29409;49.306;8.500;2024-01-30T04:17:45;43.14;39.70;49.95;;
43787;Laerm;29409;49.306;8.500;2024-01-30T04:18:45;41.99;39.21;46.73;;
43787;Laerm;29409;49.306;8.500;2024-01-30T04:19:45;46.71;39.34;62.76;;
43787;Laerm;29409;49.306;8.500;2024-01-30T04:20:45;42.02;39.58;46.91;;
43787;Laerm;29409;49.306;8.500;2024-01-30T04:21:46;42.80;39.46;48.84;;
43787;Laerm;29409;49.306;8.500;2024-01-30T04:22:46;44.69;40.03;56.59;;
43787;Laerm;29409;49.306;8.500;2024-01-30T04:23:47;42.08;39.21;45.42;;
43787;Laerm;29409;49.306;8.500;2024-01-30T04:24:48;42.11;39.08;46.40;;
43787;Laerm;29409;49.306;8.500;2024-01-30T04:25:48;41.99;38.21;45.69;;
43787;Laerm;29409;49.306;8.500;2024-01-30T04:26:48;42.72;39.58;47.18;;
43787;Laerm;29409;49.306;8.500;2024-01-30T04:27:48;42.39;39.81;50.05;;
43787;Laerm;29409;49.306;8.500;2024-01-30T04:28:49;41.75;39.08;44.58;;
43787;Laerm;29409;49.306;8.500;2024-01-30T04:29:49;42.22;39.21;45.94;;
43787;Laerm;29409;49.306;8.500;2024-01-30T04:30:49;41.53;39.08;44.65;;
43787;Laerm;29409;49.306;8.500;2024-01-30T04:31:50;42.11;38.95;48.85;;
43787;Laerm;29409;49.306;8.500;2024-01-30T04:32:50;41.89;39.58;45.23;;
43787;Laerm;29409;49.306;8.500;2024-01-30T04:33:50;42.52;39.08;46.48;;
43787;Laerm;29409;49.306;8.500;2024-01-30T04:34:50;41.97;39.46;45.04;;
43787;Laerm;29409;49.306;8.500;2024-01-30T04:35:51;42.41;39.21;49.82;;
43787;Laerm;29409;49.306;8.500;2024-01-30T04:36:51;42.53;39.58;47.24;;
43787;Laerm;29409;49.306;8.500;2024-01-30T04:37:52;42.44;39.89;46.87;;
43787;Laerm;29409;49.306;8.500;2024-01-30T04:38:53;42.36;38.05;49.84;;
43787;Laerm;29409;49.306;8.500;2024-01-30T04:39:53;42.16;39.92;45.42;;
43787;Laerm;29409;49.306;8.500;2024-01-30T04:40:56;43.55;40.23;49.27;;
43787;Laerm;29409;49.306;8.500;2024-01-30T04:41:56;45.89;40.89;53.59;;
43787;Laerm;29409;49.306;8.500;2024-01-30T04:42:57;42.54;39.81;46.25;;
43787;Laerm;29409;49.306;8.500;2024-01-30T04:43:57;48.19;40.03;65.05;;
43787;Laerm;29409;49.306;8.500;2024-01-30T04:44:57;42.39;39.58;45.01;;
43787;Laerm;29409;49.306;8.500;2024-01-30T04:45:57;41.61;39.21;43.72;;
43787;Laerm;29409;49.306;8.500;2024-01-30T04:46:57;42.84;40.33;45.94;;
43787;Laerm;29409;49.306;8.500;2024-01-30T04:48:01;42.55;39.58;48.85;;
43787;Laerm;29409;49.306;8.500;2024-01-30T04:49:01;42.56;40.53;47.06;;
43787;Laerm;29409;49.306;8.500;2024-01-30T04:50:01;42.77;40.03;48.10;;
43787;Laerm;29409;49.306;8.500;2024-01-30T04:51:04;42.11;39.68;46.13;;
43787;Laerm;29409;49.306;8.500;2024-01-30T04:52:06;42.07;39.46;45.72;;
43787;Laerm;29409;49.306;8.500;2024-01-30T04:53:06;42.33;39.81;53.79;;
43787;Laerm;29409;49.306;8.500;2024-01-30T04:54:07;43.53;40.03;50.44;;
43787;Laerm;29409;49.306;8.500;2024-01-30T04:55:08;42.67;39.92;45.66;;
43787;Laerm;29409;49.306;8.500;2024-01-30T04:56:08;41.99;39.58;45.20;;
43787;Laerm;29409;49.306;8.500;2024-01-30T04:57:08;42.07;38.67;45.83;;
43787;Laerm;29409;49.306;8.500;2024-01-30T04:58:12;42.27;39.46;48.00;;
43787;Laerm;29409;49.306;8.500;2024-01-30T04:59:12;42.09;38.81;46.38;;
43787;Laerm;29409;49.306;8.500;2024-01-30T05:00:13;41.80;39.58;47.26;;
43787;Laerm;29409;49.306;8.500;2024-01-30T05:01:16;42.75;40.23;47.16;;
43787;Laerm;29409;49.306;8.500;2024-01-30T05:02:16;43.46;41.22;46.50;;
43787;Laerm;29409;49.306;8.500;2024-01-30T05:03:17;43.43;40.89;46.64;;
43787;Laerm;29409;49.306;8.500;2024-01-30T05:04:17;42.94;40.23;46.13;;
43787;Laerm;29409;49.306;8.500;2024-01-30T05:05:18;42.80;40.36;47.32;;
43787;Laerm;29409;49.306;8.500;2024-01-30T05:06:25;42.37;40.03;45.72;;
43787;Laerm;29409;49.306;8.500;2024-01-30T05:07:25;42.78;39.92;47.34;;
43787;Laerm;29409;49.306;8.500;2024-01-30T05:08:26;49.40;40.98;61.57;;
43787;Laerm;29409;49.306;8.500;2024-01-30T05:09:26;42.62;40.13;45.17;;
43787;Laerm;29409;49.306;8.500;2024-01-30T05:10:27;42.93;39.70;48.46;;
43787;Laerm;29409;49.306;8.500;2024-01-30T05:11:28;43.86;40.13;62.31;;
43787;Laerm;29409;49.306;8.500;2024-01-30T05:12:28;44.92;39.92;63.29;;
43787;Laerm;29409;49.306;8.500;2024-01-30T05:13:32;42.80;40.33;49.88;;
43787;Laerm;29409;49.306;8.500;2024-01-30T05:14:32;43.61;39.68;52.51;;
43787;Laerm;29409;49.306;8.500;2024-01-30T05:15:32;42.81;39.81;53.81;;
43787;Laerm;29409;49.306;8.500;2024-01-30T05:16:33;42.02;39.70;49.77;;
43787;Laerm;29409;49.306;8.500;2024-01-30T05:17:33;41.54;39.46;43.24;;
43787;Laerm;29409;49.306;8.500;2024-01-30T05:18:33;42.77;39.58;48.98;;
43787;Laerm;29409;49.306;8.500;2024-01-30T05:19:33;43.76;39.99;49.90;;
43787;Laerm;29409;49.306;8.500;2024-01-30T05:20:33;42.59;40.13;45.89;;
43787;Laerm;29409;49.306;8.500;2024-01-30T05:21:34;42.74;40.53;46.64;;
43787;Laerm;29409;49.306;8.500;2024-01-30T05:22:34;42.72;40.23;47.86;;
43787;Laerm;29409;49.306;8.500;2024-01-30T05:23:35;42.71;40.62;48.66;;
43787;Laerm;29409;49.306;8.500;2024-01-30T05:24:36;43.09;40.80;46.66;;
43787;Laerm;29409;49.306;8.500;2024-01-30T05:25:36;42.73;40.98;44.38;;
43787;Laerm;29409;49.306;8.500;2024-01-30T05:26:37;44.91;40.23;52.83;;
43787;Laerm;29409;49.306;8.500;2024-01-30T05:27:37;42.52;40.71;44.11;;
43787;Laerm;29409;49.306;8.500;2024-01-30T05:28:37;43.34;40.62;49.34;;
43787;Laerm;29409;49.306;8.500;2024-01-30T05:29:38;51.05;40.71;68.74;;
43787;Laerm;29409;49.306;8.500;2024-01-30T05:30:38;43.48;40.62;50.93;;
43787;Laerm;29409;49.306;8.500;2024-01-30T05:31:38;43.63;40.53;48.48;;
43787;Laerm;29409;49.306;8.500;2024-01-30T05:32:39;42.94;40.43;46.48;;
43787;Laerm;29409;49.306;8.500;2024-01-30T05:33:40;42.57;40.33;46.18;;
43787;Laerm;29409;49.306;8.500;2024-01-30T05:34:40;43.28;40.62;49.05;;
43787;Laerm;29409;49.306;8.500;2024-01-30T05:35:40;49.14;41.30;64.51;;
43787;Laerm;29409;49.306;8.500;2024-01-30T05:36:40;43.65;40.98;48.21;;
43787;Laerm;29409;49.306;8.500;2024-01-30T05:37:41;42.94;40.71;47.91;;
43787;Laerm;29409;49.306;8.500;2024-01-30T05:38:41;43.22;40.89;46.18;;
43787;Laerm;29409;49.306;8.500;2024-01-30T05:39:42;43.63;40.33;48.39;;